Time;durP1;ratioP1;P1;durP2;ratioP2;P2;SDS_P1;SDS_P2;PMS_P1;PMS_P2;Temp;Humidity;BMP_temperature;BMP_pressure;BME280_temperature;BME280_humidity;BME280_pressure;Samples;Min_cycle;Max_cycle;Signal;HPM_P1;HPM_P2
2024/04/07 00:01:26;;;;;;;2.40;2.08;;;19.00;99.90;;;;;;5120916;27;20039;-36
2024/04/07 00:03:52;;;;;;;2.50;1.90;;;19.00;99.90;;;;;;5108141;27;20063;-37
2024/04/07 00:06:17;;;;;;;2.88;1.90;;;19.00;99.90;;;;;;5121694;27;20125;-36
2024/04/07 00:08:46;;;;;;;2.85;1.83;;;19.00;99.90;;;;;;5109489;27;20027;-37
2024/04/07 00:11:21;;;;;;;2.75;1.85;;;19.00;99.90;;;;;;5120010;27;20053;-37
2024/04/07 00:13:46;;;;;;;2.58;1.90;;;18.90;99.90;;;;;;5111398;27;20097;-36
2024/04/07 00:16:12;;;;;;;3.08;1.90;;;18.90;99.90;;;;;;5117744;28;20035;-35
2024/04/07 00:18:38;;;;;;;2.40;1.75;;;19.00;99.90;;;;;;5113770;28;20038;-38
2024/04/07 00:21:04;;;;;;;3.28;1.55;;;18.90;99.90;;;;;;5115373;28;20154;-35
2024/04/07 00:23:31;;;;;;;2.42;1.45;;;19.00;99.90;;;;;;5116094;27;20051;-38
2024/04/07 00:25:57;;;;;;;2.50;1.70;;;19.00;99.90;;;;;;5114263;28;20020;-35
2024/04/07 00:28:26;;;;;;;1.75;1.38;;;19.00;99.90;;;;;;5118697;27;20031;-33
2024/04/07 00:30:51;;;;;;;1.73;1.40;;;19.00;99.90;;;;;;5106355;28;20022;-37
2024/04/07 00:33:17;;;;;;;3.35;1.90;;;19.00;99.90;;;;;;5101927;28;20027;-35
2024/04/07 00:35:59;;;;;;;2.80;1.70;;;19.10;99.90;;;;;;5112259;28;20047;-36
2024/04/07 00:38:26;;;;;;;2.13;1.90;;;19.00;99.90;;;;;;5104754;27;20052;-36
2024/04/07 00:40:53;;;;;;;2.20;2.00;;;19.00;99.90;;;;;;5116168;27;20024;-36
2024/04/07 00:43:22;;;;;;;4.13;2.00;;;18.90;99.90;;;;;;5105794;27;20114;-35
2024/04/07 00:45:50;;;;;;;2.10;1.90;;;19.00;99.90;;;;;;5122228;27;20016;-35
2024/04/07 00:48:19;;;;;;;3.45;2.03;;;19.00;99.90;;;;;;5106981;27;20565;-37
2024/04/07 00:50:47;;;;;;;4.10;1.52;;;19.10;99.90;;;;;;5113450;27;20054;-37
2024/04/07 00:53:22;;;;;;;3.83;1.80;;;19.10;99.90;;;;;;5125938;27;20027;-38
2024/04/07 00:55:48;;;;;;;3.60;1.95;;;19.10;99.90;;;;;;5112313;27;20108;-33
2024/04/07 00:58:16;;;;;;;4.03;1.88;;;19.20;99.90;;;;;;5124804;27;20023;-35
2024/04/07 01:00:42;;;;;;;6.60;1.88;;;19.20;99.90;;;;;;5112362;27;20055;-33
2024/04/07 01:03:09;;;;;;;3.50;2.25;;;19.20;99.90;;;;;;5124775;27;20167;-38
2024/04/07 01:05:47;;;;;;;4.22;2.20;;;19.30;99.90;;;;;;5114040;27;20028;-37
2024/04/07 01:08:17;;;;;;;3.95;2.00;;;19.30;99.90;;;;;;5124847;27;20034;-38
2024/04/07 01:10:48;;;;;;;3.97;1.70;;;19.40;99.70;;;;;;5115010;27;20038;-32
2024/04/07 01:13:14;;;;;;;3.80;1.40;;;19.40;99.60;;;;;;5123233;27;20027;-34
2024/04/07 01:15:39;;;;;;;4.43;2.15;;;19.40;99.50;;;;;;5116503;27;20035;-38
2024/04/07 01:18:05;;;;;;;5.60;2.28;;;19.40;99.50;;;;;;5119508;27;20445;-35
2024/04/07 01:20:32;;;;;;;5.55;1.70;;;19.40;99.30;;;;;;5118620;27;20661;-37
2024/04/07 01:22:58;;;;;;;4.20;1.77;;;19.40;99.30;;;;;;5118171;27;20023;-37
2024/04/07 01:25:24;;;;;;;3.28;1.70;;;19.40;99.30;;;;;;5120567;27;20076;-33
2024/04/07 01:28:00;;;;;;;6.25;2.40;;;19.40;99.20;;;;;;5115656;27;20039;-36
2024/04/07 01:30:26;;;;;;;4.18;1.75;;;19.30;99.20;;;;;;5121935;27;20537;-35
2024/04/07 01:32:52;;;;;;;8.13;2.35;;;19.30;99.20;;;;;;5112697;27;20116;-36
2024/04/07 01:35:18;;;;;;;6.25;2.42;;;19.30;99.30;;;;;;5122609;27;20378;-36
2024/04/07 01:37:45;;;;;;;6.32;1.80;;;19.20;99.40;;;;;;5113300;27;20083;-32
2024/04/07 01:40:13;;;;;;;6.60;2.33;;;19.20;99.50;;;;;;5122560;27;20023;-37
2024/04/07 01:42:40;;;;;;;4.95;1.70;;;19.10;99.60;;;;;;5120987;27;20027;-36
2024/04/07 01:45:07;;;;;;;3.40;1.35;;;19.10;99.70;;;;;;5123668;27;20126;-37
2024/04/07 01:47:33;;;;;;;3.45;1.40;;;19.00;99.80;;;;;;5119260;27;20640;-37
2024/04/07 01:49:59;;;;;;;2.97;1.20;;;19.00;99.90;;;;;;5123757;27;20072;-38
2024/04/07 01:52:25;;;;;;;4.68;1.23;;;18.90;99.90;;;;;;5118069;27;20035;-37
2024/04/07 01:54:50;;;;;;;2.22;1.25;;;18.80;99.90;;;;;;5103129;28;20370;-35
2024/04/07 01:57:16;;;;;;;3.05;1.20;;;18.70;99.90;;;;;;5113333;27;20896;-37
2024/04/07 01:59:41;;;;;;;2.60;1.20;;;18.70;99.90;;;;;;5106107;27;20042;-37
2024/04/07 02:02:07;;;;;;;3.90;1.10;;;18.60;99.90;;;;;;5110006;27;20145;-37
2024/04/07 02:04:33;;;;;;;2.22;1.10;;;18.60;99.90;;;;;;5108985;27;20019;-37
2024/04/07 02:06:59;;;;;;;3.97;1.25;;;18.50;99.90;;;;;;5108556;27;20065;-35
2024/04/07 02:09:24;;;;;;;3.40;0.95;;;18.50;99.90;;;;;;5109887;27;20172;-38
2024/04/07 02:11:50;;;;;;;4.03;1.75;;;18.50;99.90;;;;;;5105649;27;20078;-34
2024/04/07 02:14:16;;;;;;;2.13;1.02;;;18.40;99.90;;;;;;5113471;27;20062;-35
2024/04/07 02:16:41;;;;;;;4.43;1.67;;;18.30;99.90;;;;;;5104005;27;20031;-38
2024/04/07 02:19:08;;;;;;;4.82;1.27;;;18.30;99.90;;;;;;5114246;27;20995;-36
2024/04/07 02:21:33;;;;;;;1.88;0.70;;;18.20;99.90;;;;;;5102841;27;20053;-38
2024/04/07 02:23:59;;;;;;;2.60;1.10;;;18.20;99.90;;;;;;5114336;27;20020;-35
2024/04/07 02:26:28;;;;;;;2.38;1.35;;;18.20;99.90;;;;;;5103044;28;20031;-36
2024/04/07 02:28:54;;;;;;;2.90;0.90;;;18.10;99.90;;;;;;5114829;27;20081;-38
2024/04/07 02:31:19;;;;;;;1.05;0.70;;;18.00;99.90;;;;;;5102986;28;20041;-37
2024/04/07 02:33:48;;;;;;;2.00;1.00;;;18.00;99.90;;;;;;5115781;27;20043;-39
2024/04/07 02:36:16;;;;;;;2.67;1.05;;;17.90;99.90;;;;;;5102178;28;20755;-36
2024/04/07 02:38:44;;;;;;;1.63;0.80;;;17.90;99.90;;;;;;5107686;27;20039;-36
2024/04/07 02:41:11;;;;;;;1.15;0.85;;;17.80;99.90;;;;;;5120973;27;20027;-37
2024/04/07 02:43:36;;;;;;;1.42;0.70;;;17.80;99.90;;;;;;5114016;27;20072;-37
2024/04/07 02:48:46;;;;;;;3.80;1.13;;;17.70;99.90;;;;;;5106663;27;20077;-38
2024/04/07 02:51:12;;;;;;;3.20;1.00;;;17.70;99.90;;;;;;5117359;27;20106;-37
2024/04/07 02:53:39;;;;;;;1.52;0.75;;;17.60;99.90;;;;;;5116833;27;20106;-37
2024/04/07 02:56:05;;;;;;;1.85;0.70;;;17.60;99.90;;;;;;5115391;27;20771;-38
2024/04/07 02:58:31;;;;;;;1.63;0.80;;;17.60;99.90;;;;;;5118348;27;20555;-35
2024/04/07 03:01:03;;;;;;;2.30;0.90;;;17.50;99.90;;;;;;5112341;27;20118;-34
2024/04/07 03:03:29;;;;;;;1.85;0.93;;;17.50;99.90;;;;;;5120194;27;20070;-37
2024/04/07 03:05:55;;;;;;;3.40;0.90;;;17.50;99.90;;;;;;5110713;27;20142;-36
2024/04/07 03:08:20;;;;;;;1.50;0.70;;;17.40;99.90;;;;;;5121237;27;20525;-38
2024/04/07 03:10:56;;;;;;;1.95;0.90;;;17.40;99.90;;;;;;5111010;27;20038;-33
2024/04/07 03:13:21;;;;;;;2.90;0.80;;;17.40;99.90;;;;;;5121535;27;20112;-37
2024/04/07 03:15:48;;;;;;;2.42;0.63;;;17.40;99.90;;;;;;5111866;27;20051;-39
2024/04/07 03:18:16;;;;;;;1.48;0.68;;;17.40;99.90;;;;;;5122926;27;20029;-35
2024/04/07 03:20:42;;;;;;;1.50;0.70;;;17.40;99.90;;;;;;5115526;27;20134;-38
2024/04/07 03:23:07;;;;;;;1.35;0.70;;;17.30;99.90;;;;;;5102654;27;20034;-36
2024/04/07 03:25:33;;;;;;;1.15;0.50;;;17.30;99.90;;;;;;5108489;27;20111;-36
2024/04/07 03:27:59;;;;;;;0.60;0.50;;;17.30;99.90;;;;;;5122151;27;20062;-37
2024/04/07 03:30:24;;;;;;;1.70;0.55;;;17.20;99.90;;;;;;5111338;27;20020;-38
2024/04/07 03:32:50;;;;;;;2.25;0.40;;;17.20;99.90;;;;;;5119951;27;20850;-36
2024/04/07 03:35:19;;;;;;;0.77;0.38;;;17.20;99.90;;;;;;5113230;27;20028;-35
2024/04/07 03:37:47;;;;;;;0.95;0.57;;;17.20;99.90;;;;;;5118822;27;20023;-36
2024/04/07 03:40:13;;;;;;;0.50;0.50;;;17.20;99.90;;;;;;5115163;27;20099;-36
2024/04/07 03:42:41;;;;;;;0.68;0.40;;;17.20;99.90;;;;;;5116480;27;20019;-37
2024/04/07 03:45:09;;;;;;;0.88;0.50;;;17.20;99.90;;;;;;5117887;27;20094;-37
2024/04/07 03:47:37;;;;;;;1.13;0.47;;;17.20;99.90;;;;;;5102015;27;20103;-37
2024/04/07 03:50:03;;;;;;;2.15;0.80;;;17.20;99.90;;;;;;5103515;28;20027;-32
2024/04/07 03:52:29;;;;;;;2.10;0.40;;;17.20;99.90;;;;;;5112602;27;20080;-37
2024/04/07 03:54:55;;;;;;;0.60;0.50;;;17.20;99.90;;;;;;5101893;27;20022;-35
2024/04/07 03:57:21;;;;;;;0.52;0.30;;;17.20;99.90;;;;;;5113329;27;20063;-36
2024/04/07 03:59:46;;;;;;;1.45;0.43;;;17.20;99.90;;;;;;5102003;28;20445;-37
2024/04/07 04:02:29;;;;;;;1.67;0.40;;;17.20;99.90;;;;;;5112617;27;20058;-36
2024/04/07 04:04:58;;;;;;;;;;;17.20;99.90;;;;;;5101965;28;20033;-35
2024/04/07 04:07:28;;;;;;;0.77;0.50;;;17.20;99.90;;;;;;5112039;27;20419;-36
2024/04/07 04:09:54;;;;;;;0.95;0.50;;;17.20;99.90;;;;;;5101142;28;20027;-37
2024/04/07 04:12:24;;;;;;;1.05;0.40;;;17.20;99.90;;;;;;5112848;27;20774;-37
2024/04/07 04:14:50;;;;;;;1.17;0.40;;;17.20;99.90;;;;;;5100348;28;20030;-38
2024/04/07 04:17:16;;;;;;;1.05;0.50;;;17.20;99.90;;;;;;5113400;27;20031;-36
2024/04/07 04:19:42;;;;;;;1.10;0.52;;;17.20;99.90;;;;;;5100609;28;20552;-39
2024/04/07 04:22:08;;;;;;;0.65;0.40;;;17.20;99.90;;;;;;5110517;28;20027;-38
2024/04/07 04:24:38;;;;;;;1.08;0.32;;;17.20;99.90;;;;;;5103054;27;20019;-38
2024/04/07 04:27:04;;;;;;;0.57;0.35;;;17.20;99.90;;;;;;5109119;28;20030;-37
2024/04/07 04:29:32;;;;;;;0.40;0.25;;;17.30;99.90;;;;;;5104023;27;20024;-32
2024/04/07 04:31:58;;;;;;;0.60;0.20;;;17.30;99.90;;;;;;5106693;28;20019;-35
2024/04/07 04:34:24;;;;;;;0.73;0.30;;;17.30;99.90;;;;;;5106405;27;20073;-38
2024/04/07 04:36:51;;;;;;;0.60;0.30;;;17.30;99.90;;;;;;5103755;28;20135;-38
2024/04/07 04:39:17;;;;;;;0.88;0.45;;;17.30;99.90;;;;;;5109545;27;20039;-35
2024/04/07 04:41:45;;;;;;;0.40;0.40;;;17.30;99.90;;;;;;5102723;28;20028;-36
2024/04/07 04:44:12;;;;;;;1.42;0.40;;;17.30;99.90;;;;;;5110803;27;20148;-36
2024/04/07 04:46:42;;;;;;;0.95;0.30;;;17.30;99.90;;;;;;5102551;28;20108;-36
2024/04/07 04:49:09;;;;;;;0.60;0.30;;;17.30;99.90;;;;;;5111358;28;20386;-37
2024/04/07 04:51:34;;;;;;;0.30;0.28;;;17.30;99.90;;;;;;5102570;28;20028;-32
2024/04/07 04:54:00;;;;;;;0.30;0.30;;;17.30;99.90;;;;;;5112025;27;20079;-34
2024/04/07 04:56:26;;;;;;;0.47;0.20;;;17.30;99.90;;;;;;5099906;28;20127;-35
2024/04/07 04:58:53;;;;;;;1.25;0.40;;;17.30;99.90;;;;;;5112821;28;20095;-34
2024/04/07 05:01:19;;;;;;;1.08;0.28;;;17.30;99.90;;;;;;5100305;28;20034;-37
2024/04/07 05:03:45;;;;;;;1.50;0.40;;;17.20;99.90;;;;;;5112957;28;20024;-33
2024/04/07 05:06:12;;;;;;;0.47;0.20;;;17.20;99.90;;;;;;5099911;28;20035;-42
2024/04/07 05:08:42;;;;;;;0.35;0.20;;;17.20;99.90;;;;;;5104993;28;20118;-35
2024/04/07 05:11:08;;;;;;;0.40;0.30;;;17.20;99.90;;;;;;5118228;28;20031;-39
2024/04/07 05:13:34;;;;;;;0.88;0.30;;;17.20;99.90;;;;;;5112466;27;20030;-36
2024/04/07 05:16:03;;;;;;;0.47;0.20;;;17.20;99.90;;;;;;5116578;28;20031;-34
2024/04/07 05:18:29;;;;;;;0.28;0.20;;;17.20;99.90;;;;;;5115009;27;20432;-38
2024/04/07 05:20:56;;;;;;;1.38;0.20;;;17.20;99.90;;;;;;5114920;28;20049;-36
2024/04/07 05:23:24;;;;;;;0.30;0.20;;;17.10;99.90;;;;;;5117215;27;20027;-36
2024/04/07 05:25:51;;;;;;;0.82;0.40;;;17.20;99.90;;;;;;5114100;27;20035;-32
2024/04/07 05:28:16;;;;;;;0.20;0.20;;;17.10;99.90;;;;;;5122948;27;20027;-33
2024/04/07 05:30:42;;;;;;;0.68;0.28;;;17.10;99.90;;;;;;5113183;27;20038;-38
2024/04/07 05:33:08;;;;;;;0.73;0.30;;;17.10;99.90;;;;;;5122123;27;20026;-36
2024/04/07 05:35:34;;;;;;;0.75;0.30;;;17.10;99.90;;;;;;5113347;27;20137;-37
2024/04/07 05:38:00;;;;;;;0.57;0.22;;;17.10;99.90;;;;;;5123115;27;20616;-36
2024/04/07 05:40:25;;;;;;;0.20;0.20;;;17.10;99.90;;;;;;5110751;27;20026;-35
2024/04/07 05:42:52;;;;;;;0.47;0.20;;;17.10;99.90;;;;;;5124560;27;20023;-37
2024/04/07 05:45:18;;;;;;;0.68;0.38;;;17.10;99.90;;;;;;5110743;27;20031;-36
2024/04/07 05:47:56;;;;;;;0.40;0.30;;;17.10;99.90;;;;;;5114150;27;20375;-36
2024/04/07 05:50:21;;;;;;;1.05;0.30;;;17.10;99.90;;;;;;5116443;27;20033;-35
2024/04/07 05:52:47;;;;;;;0.55;0.30;;;17.00;99.90;;;;;;5103274;28;20028;-36
2024/04/07 05:55:13;;;;;;;0.30;0.30;;;17.00;99.90;;;;;;5113882;27;20015;-35
2024/04/07 05:57:39;;;;;;;0.40;0.30;;;17.10;99.90;;;;;;5106543;27;20835;-36
2024/04/07 06:00:09;;;;;;;0.82;0.50;;;17.00;99.90;;;;;;5110920;27;20091;-37
2024/04/07 06:02:36;;;;;;;0.55;0.40;;;17.00;99.90;;;;;;5108030;27;20596;-33
2024/04/07 06:05:04;;;;;;;0.40;0.30;;;17.00;99.90;;;;;;5109488;27;20115;-33
2024/04/07 06:07:33;;;;;;;0.40;0.30;;;17.00;99.90;;;;;;5109256;27;20066;-36
2024/04/07 06:09:58;;;;;;;0.47;0.40;;;17.00;99.90;;;;;;5107248;27;20023;-36
2024/04/07 06:12:26;;;;;;;0.82;0.30;;;17.00;99.90;;;;;;5111527;27;20051;-37
2024/04/07 06:14:52;;;;;;;0.85;0.30;;;17.00;99.90;;;;;;5103881;27;20027;-36
2024/04/07 06:17:18;;;;;;;0.40;0.40;;;16.90;99.90;;;;;;5114177;27;20024;-37
2024/04/07 06:19:43;;;;;;;0.68;0.40;;;16.90;99.90;;;;;;5104515;27;20059;-36
2024/04/07 06:22:09;;;;;;;0.80;0.50;;;16.80;99.90;;;;;;5112685;27;20034;-37
2024/04/07 06:24:34;;;;;;;0.60;0.38;;;16.80;99.90;;;;;;5104131;27;20032;-36
2024/04/07 06:27:00;;;;;;;0.40;0.40;;;16.70;99.90;;;;;;5115182;27;20035;-37
2024/04/07 06:29:25;;;;;;;1.88;0.60;;;16.70;99.90;;;;;;5102367;28;20523;-36
2024/04/07 06:31:51;;;;;;;0.43;0.43;;;16.60;99.90;;;;;;5115649;27;20059;-36
2024/04/07 06:34:16;;;;;;;0.30;0.30;;;16.60;99.90;;;;;;5102054;28;20027;-33
2024/04/07 06:36:42;;;;;;;0.32;0.30;;;16.60;99.90;;;;;;5109538;27;20039;-38
2024/04/07 06:39:08;;;;;;;0.85;0.50;;;16.60;99.90;;;;;;5100985;27;20023;-38
2024/04/07 06:41:34;;;;;;;1.13;0.32;;;16.60;99.90;;;;;;5108982;27;20034;-35
2024/04/07 06:44:01;;;;;;;0.70;0.40;;;16.50;99.90;;;;;;5104517;27;20024;-38
2024/04/07 06:46:29;;;;;;;0.43;0.25;;;16.50;99.90;;;;;;5106336;27;20034;-37
2024/04/07 06:48:55;;;;;;;0.35;0.30;;;16.50;99.90;;;;;;5100040;27;20024;-36
2024/04/07 06:51:21;;;;;;;2.45;0.40;;;16.50;99.90;;;;;;5105099;27;20042;-34
2024/04/07 06:53:47;;;;;;;1.38;0.60;;;16.50;99.90;;;;;;5110709;27;20024;-36
2024/04/07 06:56:13;;;;;;;2.05;0.57;;;16.50;99.90;;;;;;5102040;27;20019;-35
2024/04/07 06:58:38;;;;;;;1.33;0.40;;;16.50;99.90;;;;;;5113273;27;20031;-37
2024/04/07 07:01:04;;;;;;;1.67;0.60;;;16.50;99.90;;;;;;5102394;27;20016;-36
2024/04/07 07:03:29;;;;;;;0.88;0.38;;;16.50;99.90;;;;;;5112069;27;20030;-35
2024/04/07 07:05:55;;;;;;;0.60;0.40;;;16.50;99.90;;;;;;5101018;28;20069;-33
2024/04/07 07:08:21;;;;;;;1.20;0.32;;;16.50;99.90;;;;;;5109938;27;20076;-37
2024/04/07 07:11:00;;;;;;;1.00;0.40;;;16.50;99.90;;;;;;5121131;27;20027;-35
2024/04/07 07:13:30;;;;;;;0.30;0.30;;;16.50;99.90;;;;;;5108946;27;20088;-34
2024/04/07 07:15:57;;;;;;;1.10;0.52;;;16.50;99.90;;;;;;5121678;27;20780;-35
2024/04/07 07:18:23;;;;;;;2.83;0.40;;;16.60;99.90;;;;;;5108408;27;20024;-37
2024/04/07 07:20:49;;;;;;;1.42;0.32;;;16.60;99.90;;;;;;5121511;27;20498;-38
2024/04/07 07:23:15;;;;;;;1.30;0.45;;;16.70;99.90;;;;;;5109955;27;20019;-38
2024/04/07 07:25:42;;;;;;;0.98;0.43;;;16.70;99.90;;;;;;5119628;27;20738;-39
2024/04/07 07:28:08;;;;;;;1.17;0.57;;;16.70;99.90;;;;;;5111334;27;20023;-36
2024/04/07 07:30:37;;;;;;;1.42;0.65;;;16.70;99.90;;;;;;5117860;27;20807;-37
2024/04/07 07:33:03;;;;;;;1.17;0.60;;;16.70;99.90;;;;;;5113857;27;20030;-37
2024/04/07 07:35:29;;;;;;;1.20;0.70;;;16.70;99.90;;;;;;5115568;27;20023;-38
2024/04/07 07:37:55;;;;;;;0.95;0.52;;;16.70;99.90;;;;;;5116713;27;20027;-38
2024/04/07 07:40:21;;;;;;;1.58;0.60;;;16.70;99.90;;;;;;5112882;27;20558;-37
2024/04/07 07:42:47;;;;;;;2.38;0.75;;;16.60;99.90;;;;;;5120518;27;20508;-37
2024/04/07 07:45:13;;;;;;;0.85;0.50;;;16.60;99.90;;;;;;5109638;27;20018;-37
2024/04/07 07:47:38;;;;;;;1.92;0.60;;;16.60;99.90;;;;;;5113513;27;20019;-37
2024/04/07 07:50:07;;;;;;;1.30;1.00;;;16.60;99.90;;;;;;5111477;27;20070;-35
2024/04/07 07:52:32;;;;;;;2.10;0.70;;;16.60;99.90;;;;;;5100721;27;20023;-37
2024/04/07 07:54:58;;;;;;;1.45;0.70;;;16.60;99.90;;;;;;5112638;27;20076;-37
2024/04/07 07:57:23;;;;;;;2.95;0.80;;;16.70;99.90;;;;;;5100402;28;20091;-36
2024/04/07 07:59:49;;;;;;;1.90;0.40;;;16.80;99.90;;;;;;5112512;27;20115;-36
2024/04/07 08:02:15;;;;;;;0.75;0.47;;;16.90;99.90;;;;;;5100561;28;20145;-36
2024/04/07 08:04:41;;;;;;;4.15;1.00;;;17.00;99.90;;;;;;5112175;27;20027;-38
2024/04/07 08:07:07;;;;;;;1.73;0.80;;;17.00;99.90;;;;;;5100104;27;20031;-38
2024/04/07 08:09:32;;;;;;;1.23;0.68;;;17.10;99.90;;;;;;5109719;27;20066;-37
2024/04/07 08:11:59;;;;;;;0.80;0.80;;;17.20;99.90;;;;;;5104133;27;20034;-38
2024/04/07 08:14:25;;;;;;;1.08;0.77;;;17.20;99.90;;;;;;5106756;28;20063;-33
2024/04/07 08:16:50;;;;;;;1.27;0.65;;;17.30;99.90;;;;;;5106190;27;20130;-36
2024/04/07 08:19:16;;;;;;;1.52;0.68;;;17.40;99.90;;;;;;5104530;28;20026;-36
2024/04/07 08:21:42;;;;;;;2.33;0.80;;;17.40;99.90;;;;;;5109212;27;20039;-37
2024/04/07 08:24:08;;;;;;;2.13;0.90;;;17.40;99.90;;;;;;5101865;28;20023;-37
2024/04/07 08:26:39;;;;;;;2.28;0.98;;;17.50;99.90;;;;;;5109640;28;20042;-37
2024/04/07 08:29:05;;;;;;;2.92;1.20;;;17.50;99.90;;;;;;5118430;28;20088;-38
2024/04/07 08:31:31;;;;;;;1.42;0.70;;;17.50;99.90;;;;;;5109195;28;20473;-38
2024/04/07 08:33:56;;;;;;;1.08;0.80;;;17.60;99.90;;;;;;5119788;28;20588;-37
2024/04/07 08:36:28;;;;;;;1.60;0.77;;;17.60;99.90;;;;;;5107738;28;20066;-37
2024/04/07 08:38:54;;;;;;;2.15;0.88;;;17.60;99.90;;;;;;5121053;28;20270;-35
2024/04/07 08:41:20;;;;;;;1.35;0.75;;;17.60;99.90;;;;;;5106408;27;20467;-36
2024/04/07 08:43:48;;;;;;;2.53;0.82;;;17.60;99.90;;;;;;5121327;27;20034;-35
2024/04/07 08:46:14;;;;;;;1.85;0.80;;;17.60;99.90;;;;;;5107293;27;20022;-35
2024/04/07 08:48:50;;;;;;;1.92;0.85;;;17.60;99.90;;;;;;5104072;27;20034;-36
2024/04/07 08:51:17;;;;;;;2.67;0.70;;;17.70;99.90;;;;;;5112212;28;20035;-36
2024/04/07 08:53:44;;;;;;;1.60;0.65;;;17.70;99.90;;;;;;5101479;27;20057;-37
2024/04/07 08:56:20;;;;;;;2.22;0.70;;;17.70;99.90;;;;;;5109420;28;20038;-36
2024/04/07 08:58:46;;;;;;;1.92;0.60;;;17.80;99.90;;;;;;5102134;28;20034;-38
2024/04/07 09:01:17;;;;;;;2.83;0.80;;;17.80;99.90;;;;;;5111909;27;20385;-37
2024/04/07 09:03:43;;;;;;;2.03;0.60;;;17.90;99.90;;;;;;5107559;27;20048;-35
2024/04/07 09:06:08;;;;;;;1.25;0.60;;;17.90;99.90;;;;;;5110433;27;20015;-38
2024/04/07 09:08:34;;;;;;;1.95;0.90;;;18.00;99.90;;;;;;5111128;27;20474;-34
2024/04/07 09:11:00;;;;;;;5.22;0.98;;;18.00;99.90;;;;;;5107538;27;20967;-38
2024/04/07 09:13:25;;;;;;;1.75;0.88;;;18.10;99.90;;;;;;5112163;27;20027;-37
2024/04/07 09:15:52;;;;;;;2.10;0.77;;;18.10;99.90;;;;;;5105576;27;20104;-37
2024/04/07 09:18:21;;;;;;;1.45;0.82;;;18.20;99.90;;;;;;5113342;27;20063;-37
2024/04/07 09:20:47;;;;;;;2.28;0.95;;;18.20;99.90;;;;;;5123848;27;20052;-37
2024/04/07 09:23:13;;;;;;;2.33;0.73;;;18.30;99.90;;;;;;5112916;27;20103;-34
2024/04/07 09:25:44;;;;;;;1.98;0.80;;;18.30;99.90;;;;;;5124039;27;20027;-35
2024/04/07 09:28:10;;;;;;;1.87;0.60;;;18.40;99.90;;;;;;5113047;27;20110;-35
2024/04/07 09:30:36;;;;;;;1.48;0.60;;;18.50;99.90;;;;;;5124348;27;20484;-35
2024/04/07 09:33:01;;;;;;;1.42;0.70;;;18.60;99.90;;;;;;5111433;27;20044;-37
2024/04/07 09:35:27;;;;;;;1.80;0.73;;;18.60;99.90;;;;;;5124836;27;20028;-35
2024/04/07 09:37:52;;;;;;;2.10;0.70;;;18.60;99.90;;;;;;5111376;27;20032;-36
2024/04/07 09:40:18;;;;;;;2.50;1.13;;;18.60;99.90;;;;;;5124579;27;20027;-34
2024/04/07 09:42:44;;;;;;;1.60;0.80;;;18.70;99.90;;;;;;5114697;27;20458;-35
2024/04/07 09:45:10;;;;;;;4.00;1.10;;;18.80;99.90;;;;;;5121064;27;20037;-36
2024/04/07 09:47:38;;;;;;;1.45;0.73;;;18.80;99.90;;;;;;5116395;27;20027;-32
2024/04/07 09:50:24;;;;;;;2.78;0.90;;;18.90;99.90;;;;;;5119897;27;20110;-37
2024/04/07 09:52:52;;;;;;;2.38;0.77;;;18.90;99.90;;;;;;5115527;27;20019;-31
2024/04/07 09:55:20;;;;;;;2.22;0.70;;;18.90;99.90;;;;;;5119203;27;20150;-37
2024/04/07 09:57:46;;;;;;;1.92;0.85;;;18.90;99.90;;;;;;5118453;27;20116;-38
2024/04/07 10:00:14;;;;;;;2.00;0.70;;;18.90;99.90;;;;;;5116518;27;20023;-34
2024/04/07 10:02:40;;;;;;;0.65;0.47;;;18.90;99.90;;;;;;5120609;27;20049;-37
2024/04/07 10:05:05;;;;;;;1.55;0.50;;;18.90;99.90;;;;;;5114665;27;20483;-33
2024/04/07 10:07:36;;;;;;;1.35;0.60;;;19.00;99.90;;;;;;5122495;27;20840;-33
2024/04/07 10:10:08;;;;;;;1.65;0.65;;;19.10;99.90;;;;;;5111817;27;20031;-35
2024/04/07 10:12:34;;;;;;;5.35;1.00;;;19.10;99.90;;;;;;5121683;27;20027;-38
2024/04/07 10:14:59;;;;;;;1.65;0.60;;;19.20;99.90;;;;;;5114799;27;20068;-34
2024/04/07 10:17:26;;;;;;;3.03;0.60;;;19.20;99.90;;;;;;5104130;27;20129;-35
2024/04/07 10:19:54;;;;;;;2.33;1.30;;;19.20;99.90;;;;;;5114525;27;20836;-41
2024/04/07 10:22:22;;;;;;;2.17;0.90;;;19.30;99.90;;;;;;5102977;28;20035;-38
2024/04/07 10:24:52;;;;;;;1.27;0.88;;;19.30;99.90;;;;;;5114941;27;20020;-38
2024/04/07 10:27:25;;;;;;;0.77;0.47;;;19.30;99.90;;;;;;5101420;28;20573;-36
2024/04/07 10:29:55;;;;;;;2.88;0.63;;;19.30;99.90;;;;;;5114873;27;20055;-37
2024/04/07 10:32:33;;;;;;;2.33;0.90;;;19.30;99.90;;;;;;5102277;28;20032;-38
2024/04/07 10:35:10;;;;;;;1.25;0.70;;;19.30;99.80;;;;;;5114174;27;20036;-36
2024/04/07 10:37:38;;;;;;;1.02;0.50;;;19.30;99.70;;;;;;5102790;28;20074;-36
2024/04/07 10:40:09;;;;;;;1.58;0.60;;;19.30;99.70;;;;;;5116312;27;20023;-37
2024/04/07 10:42:36;;;;;;;2.63;0.60;;;19.40;99.80;;;;;;5102963;28;20027;-37
2024/04/07 10:45:06;;;;;;;1.50;0.77;;;19.40;99.50;;;;;;5115153;27;20374;-35
2024/04/07 10:47:34;;;;;;;1.30;0.60;;;19.40;99.10;;;;;;5109068;27;20101;-36
2024/04/07 10:50:00;;;;;;;1.42;0.70;;;19.50;99.10;;;;;;5113119;27;20026;-37
2024/04/07 10:52:26;;;;;;;1.73;0.73;;;19.50;98.90;;;;;;5121534;27;20387;-34
2024/04/07 10:54:56;;;;;;;1.35;0.60;;;19.60;98.80;;;;;;5115696;27;20061;-38
2024/04/07 10:57:22;;;;;;;1.00;0.52;;;19.70;98.80;;;;;;5118187;27;20028;-36
2024/04/07 10:59:48;;;;;;;1.63;0.68;;;19.70;98.10;;;;;;5116428;27;20020;-38
2024/04/07 11:02:14;;;;;;;2.42;0.73;;;19.80;97.80;;;;;;5114573;27;20034;-38
2024/04/07 11:04:41;;;;;;;0.75;0.55;;;19.80;97.40;;;;;;5118734;27;20023;-37
2024/04/07 11:07:06;;;;;;;2.10;0.60;;;19.90;97.40;;;;;;5110765;27;20568;-38
2024/04/07 11:09:32;;;;;;;2.78;0.68;;;19.90;97.30;;;;;;5120015;27;20026;-36
2024/04/07 11:12:00;;;;;;;2.30;0.82;;;20.00;97.00;;;;;;5110883;27;20685;-38
2024/04/07 11:14:30;;;;;;;0.60;0.40;;;20.00;96.80;;;;;;5121721;27;20035;-36
2024/04/07 11:17:00;;;;;;;1.55;0.65;;;20.10;97.00;;;;;;5111234;27;20510;-36
2024/04/07 11:19:26;;;;;;;1.45;0.52;;;20.20;96.60;;;;;;5122649;27;20027;-38
2024/04/07 11:21:55;;;;;;;0.93;0.70;;;20.30;96.40;;;;;;5110616;27;20214;-36
2024/04/07 11:24:21;;;;;;;2.28;0.68;;;20.30;96.30;;;;;;5123005;27;20027;-36
2024/04/07 11:26:48;;;;;;;1.50;0.60;;;20.30;96.20;;;;;;5110158;27;20070;-35
2024/04/07 11:29:19;;;;;;;1.92;0.77;;;20.30;95.90;;;;;;5123294;27;20020;-36
2024/04/07 11:31:57;;;;;;;1.05;0.50;;;20.30;95.40;;;;;;5109001;27;20031;-37
2024/04/07 11:34:24;;;;;;;0.90;0.50;;;20.40;95.40;;;;;;5122640;27;20106;-39
2024/04/07 11:36:49;;;;;;;1.75;0.70;;;20.40;94.70;;;;;;5109736;27;20035;-34
2024/04/07 11:39:18;;;;;;;1.05;0.40;;;20.40;94.50;;;;;;5121738;27;20423;-35
2024/04/07 11:41:45;;;;;;;0.85;0.50;;;20.40;94.40;;;;;;5112507;27;20057;-35
2024/04/07 11:44:13;;;;;;;1.02;0.50;;;20.50;94.10;;;;;;5118783;27;20743;-35
2024/04/07 11:46:39;;;;;;;1.10;0.60;;;20.50;94.10;;;;;;5114138;27;20035;-34
2024/04/07 11:49:05;;;;;;;1.65;0.57;;;20.50;93.90;;;;;;5119219;27;20077;-35
2024/04/07 11:51:35;;;;;;;1.17;0.47;;;20.50;93.90;;;;;;5116462;27;20639;-36
2024/04/07 11:54:01;;;;;;;0.98;0.47;;;20.60;93.90;;;;;;5116139;27;20021;-36
2024/04/07 11:56:26;;;;;;;2.53;0.80;;;20.60;94.00;;;;;;5117380;27;20073;-37
2024/04/07 11:58:52;;;;;;;0.47;0.40;;;20.70;93.80;;;;;;5101142;27;20488;-38
2024/04/07 12:01:18;;;;;;;0.93;0.68;;;20.70;93.60;;;;;;5103315;27;20599;-35
2024/04/07 12:03:44;;;;;;;0.80;0.50;;;20.80;93.60;;;;;;5107900;27;20070;-35
2024/04/07 12:06:09;;;;;;;0.98;0.40;;;20.80;93.30;;;;;;5118152;27;20027;-36
2024/04/07 12:08:35;;;;;;;1.17;0.55;;;20.80;93.20;;;;;;5108248;27;20031;-35
2024/04/07 12:11:02;;;;;;;0.93;0.50;;;20.80;93.10;;;;;;5112116;27;20020;-36
2024/04/07 12:13:28;;;;;;;0.93;0.30;;;20.90;93.00;;;;;;5116762;27;20035;-37
2024/04/07 12:15:53;;;;;;;0.88;0.40;;;21.10;93.10;;;;;;5121306;27;20454;-33
2024/04/07 12:18:19;;;;;;;1.05;0.52;;;21.20;93.10;;;;;;5118069;27;20056;-37
2024/04/07 12:20:45;;;;;;;1.63;0.50;;;21.30;93.10;;;;;;5121821;27;20055;-34
2024/04/07 12:23:10;;;;;;;1.70;0.60;;;21.40;92.80;;;;;;5120381;28;20378;-34
2024/04/07 12:25:36;;;;;;;1.85;0.40;;;21.40;92.90;;;;;;5122161;28;20123;-37
2024/04/07 12:28:02;;;;;;;0.95;0.40;;;21.40;92.70;;;;;;5116970;28;20035;-37
2024/04/07 12:30:27;;;;;;;3.35;0.63;;;21.40;91.80;;;;;;5106578;28;20043;-37
2024/04/07 12:32:53;;;;;;;0.50;0.35;;;21.40;92.00;;;;;;5110628;28;20714;-34
2024/04/07 12:35:19;;;;;;;1.30;0.50;;;21.40;92.10;;;;;;5118138;27;20027;-36
2024/04/07 12:37:45;;;;;;;0.82;0.50;;;21.40;91.90;;;;;;5123578;27;20110;-35
2024/04/07 12:40:10;;;;;;;1.27;0.52;;;21.40;91.10;;;;;;5116353;27;20057;-37
2024/04/07 12:42:38;;;;;;;0.40;0.40;;;21.40;91.20;;;;;;5124508;27;20721;-37
2024/04/07 12:45:04;;;;;;;1.00;0.50;;;21.50;91.30;;;;;;5114668;27;20038;-37
2024/04/07 12:47:30;;;;;;;1.92;0.70;;;21.50;91.40;;;;;;5122838;27;20019;-38
2024/04/07 12:49:56;;;;;;;1.70;0.60;;;21.50;91.40;;;;;;5116860;27;20077;-39